sensor_id;sensor_type;location;lat;lon;timestamp;pressure;altitude;pressure_sealevel;temperature;humidity
75681;BME280;64294;49.176;16.626;2023-03-18T00:00:46;99381.75;;;2.99;48.44
75681;BME280;64294;49.176;16.626;2023-03-18T00:03:11;99380.88;;;2.93;48.57
75681;BME280;64294;49.176;16.626;2023-03-18T00:05:37;99374.19;;;2.99;48.56
75681;BME280;64294;49.176;16.626;2023-03-18T00:08:03;99379.34;;;2.92;48.50
75681;BME280;64294;49.176;16.626;2023-03-18T00:10:31;99367.88;;;2.99;48.62
75681;BME280;64294;49.176;16.626;2023-03-18T00:12:57;99367.28;;;2.95;48.88
75681;BME280;64294;49.176;16.626;2023-03-18T00:15:24;99363.25;;;2.96;48.67
75681;BME280;64294;49.176;16.626;2023-03-18T00:17:49;99362.63;;;2.86;49.10
75681;BME280;64294;49.176;16.626;2023-03-18T00:20:16;99362.84;;;2.83;49.17
75681;BME280;64294;49.176;16.626;2023-03-18T00:22:43;99359.09;;;2.86;48.96
75681;BME280;64294;49.176;16.626;2023-03-18T00:25:11;99354.78;;;2.85;49.36
75681;BME280;64294;49.176;16.626;2023-03-18T00:27:38;99361.31;;;2.82;49.47
75681;BME280;64294;49.176;16.626;2023-03-18T00:30:05;99365.63;;;2.83;49.47
75681;BME280;64294;49.176;16.626;2023-03-18T00:32:31;99372.97;;;2.86;49.34
75681;BME280;64294;49.176;16.626;2023-03-18T00:34:57;99353.81;;;2.88;49.38
75681;BME280;64294;49.176;16.626;2023-03-18T00:37:23;99364.09;;;2.82;49.49
75681;BME280;64294;49.176;16.626;2023-03-18T00:40:00;99358.59;;;2.87;49.13
75681;BME280;64294;49.176;16.626;2023-03-18T00:42:36;99357.50;;;2.79;49.74
75681;BME280;64294;49.176;16.626;2023-03-18T00:45:13;99357.69;;;2.76;49.71
75681;BME280;64294;49.176;16.626;2023-03-18T00:47:38;99360.44;;;2.76;49.65
75681;BME280;64294;49.176;16.626;2023-03-18T00:50:05;99352.06;;;2.70;50.11
75681;BME280;64294;49.176;16.626;2023-03-18T00:52:32;99354.56;;;2.68;49.96
75681;BME280;64294;49.176;16.626;2023-03-18T00:54:58;99351.00;;;2.67;50.40
75681;BME280;64294;49.176;16.626;2023-03-18T00:57:25;99345.66;;;2.64;50.25
75681;BME280;64294;49.176;16.626;2023-03-18T00:59:50;99344.97;;;2.69;50.12
75681;BME280;64294;49.176;16.626;2023-03-18T01:02:16;99337.84;;;2.62;50.33
75681;BME280;64294;49.176;16.626;2023-03-18T01:04:42;99343.38;;;2.62;50.34
75681;BME280;64294;49.176;16.626;2023-03-18T01:07:08;99336.44;;;2.72;49.89
75681;BME280;64294;49.176;16.626;2023-03-18T01:09:36;99338.66;;;2.68;50.19
75681;BME280;64294;49.176;16.626;2023-03-18T01:12:06;99342.13;;;2.63;50.37
75681;BME280;64294;49.176;16.626;2023-03-18T01:14:31;99342.31;;;2.60;50.68
75681;BME280;64294;49.176;16.626;2023-03-18T01:16:57;99337.84;;;2.62;50.41
75681;BME280;64294;49.176;16.626;2023-03-18T01:19:22;99331.31;;;2.65;50.63
75681;BME280;64294;49.176;16.626;2023-03-18T01:21:48;99331.19;;;2.74;50.52
75681;BME280;64294;49.176;16.626;2023-03-18T01:24:14;99336.16;;;2.70;50.40
75681;BME280;64294;49.176;16.626;2023-03-18T01:26:39;99334.41;;;2.53;51.16
75681;BME280;64294;49.176;16.626;2023-03-18T01:29:05;99339.94;;;2.53;51.14
75681;BME280;64294;49.176;16.626;2023-03-18T01:31:31;99331.81;;;2.49;51.36
75681;BME280;64294;49.176;16.626;2023-03-18T01:33:59;99334.81;;;2.46;51.66
75681;BME280;64294;49.176;16.626;2023-03-18T01:36:24;99338.63;;;2.48;51.72
75681;BME280;64294;49.176;16.626;2023-03-18T01:38:49;99340.84;;;2.44;52.04
75681;BME280;64294;49.176;16.626;2023-03-18T01:41:15;99336.41;;;2.52;51.71
75681;BME280;64294;49.176;16.626;2023-03-18T01:43:41;99327.72;;;2.45;51.61
75681;BME280;64294;49.176;16.626;2023-03-18T01:46:31;99340.63;;;2.48;51.91
75681;BME280;64294;49.176;16.626;2023-03-18T01:48:58;99330.56;;;2.50;51.96
75681;BME280;64294;49.176;16.626;2023-03-18T01:51:25;99332.59;;;2.50;52.04
75681;BME280;64294;49.176;16.626;2023-03-18T01:53:51;99330.84;;;2.52;51.84
75681;BME280;64294;49.176;16.626;2023-03-18T01:56:18;99337.84;;;2.48;52.19
75681;BME280;64294;49.176;16.626;2023-03-18T01:58:52;99331.00;;;2.43;52.25
75681;BME280;64294;49.176;16.626;2023-03-18T02:01:52;99335.94;;;2.39;52.82
75681;BME280;64294;49.176;16.626;2023-03-18T02:04:22;99334.13;;;2.36;53.08
75681;BME280;64294;49.176;16.626;2023-03-18T02:06:50;99342.25;;;2.39;52.53
75681;BME280;64294;49.176;16.626;2023-03-18T02:09:16;99340.09;;;2.29;53.38
75681;BME280;64294;49.176;16.626;2023-03-18T02:11:44;99338.72;;;2.39;53.03
75681;BME280;64294;49.176;16.626;2023-03-18T02:14:12;99339.19;;;2.37;53.19
75681;BME280;64294;49.176;16.626;2023-03-18T02:16:57;99346.69;;;2.17;53.60
75681;BME280;64294;49.176;16.626;2023-03-18T02:25:03;99346.13;;;1.98;54.47
75681;BME280;64294;49.176;16.626;2023-03-18T02:27:34;99348.69;;;2.01;54.60
75681;BME280;64294;49.176;16.626;2023-03-18T02:30:07;99347.06;;;1.95;54.92
75681;BME280;64294;49.176;16.626;2023-03-18T02:32:34;99348.72;;;1.87;54.96
75681;BME280;64294;49.176;16.626;2023-03-18T02:35:04;99345.47;;;1.88;55.16
75681;BME280;64294;49.176;16.626;2023-03-18T02:37:31;99341.94;;;1.88;55.48
75681;BME280;64294;49.176;16.626;2023-03-18T02:40:12;99343.50;;;1.65;56.36
75681;BME280;64294;49.176;16.626;2023-03-18T02:42:38;99347.03;;;1.50;57.09
75681;BME280;64294;49.176;16.626;2023-03-18T02:45:07;99345.13;;;1.57;56.51
75681;BME280;64294;49.176;16.626;2023-03-18T02:47:39;99346.19;;;1.59;56.65
75681;BME280;64294;49.176;16.626;2023-03-18T02:50:08;99344.19;;;1.60;56.76
75681;BME280;64294;49.176;16.626;2023-03-18T02:52:34;99343.78;;;1.52;56.67
75681;BME280;64294;49.176;16.626;2023-03-18T02:54:59;99346.44;;;1.46;57.29
75681;BME280;64294;49.176;16.626;2023-03-18T02:57:25;99338.78;;;1.41;57.14
75681;BME280;64294;49.176;16.626;2023-03-18T02:59:51;99338.25;;;1.52;57.15
75681;BME280;64294;49.176;16.626;2023-03-18T03:02:16;99339.78;;;1.53;57.05
75681;BME280;64294;49.176;16.626;2023-03-18T03:04:42;99324.31;;;1.76;56.17
75681;BME280;64294;49.176;16.626;2023-03-18T03:07:08;99337.22;;;1.64;56.50
75681;BME280;64294;49.176;16.626;2023-03-18T03:09:33;99336.88;;;1.47;56.97
75681;BME280;64294;49.176;16.626;2023-03-18T03:11:59;99331.53;;;1.44;57.20
75681;BME280;64294;49.176;16.626;2023-03-18T03:14:25;99332.25;;;1.54;57.17
75681;BME280;64294;49.176;16.626;2023-03-18T03:16:50;99333.47;;;1.52;57.59
75681;BME280;64294;49.176;16.626;2023-03-18T03:19:16;99340.06;;;1.55;57.04
75681;BME280;64294;49.176;16.626;2023-03-18T03:21:41;99338.66;;;1.74;56.68
75681;BME280;64294;49.176;16.626;2023-03-18T03:24:07;99333.50;;;1.82;56.51
75681;BME280;64294;49.176;16.626;2023-03-18T03:26:34;99341.03;;;1.81;56.68
75681;BME280;64294;49.176;16.626;2023-03-18T03:29:00;99342.84;;;1.85;56.16
75681;BME280;64294;49.176;16.626;2023-03-18T03:31:26;99348.25;;;1.88;56.19
75681;BME280;64294;49.176;16.626;2023-03-18T03:33:52;99360.16;;;1.79;56.19
75681;BME280;64294;49.176;16.626;2023-03-18T03:36:18;99355.88;;;1.93;55.76
75681;BME280;64294;49.176;16.626;2023-03-18T03:38:44;99355.38;;;1.80;56.34
75681;BME280;64294;49.176;16.626;2023-03-18T03:41:11;99364.44;;;1.66;56.87
75681;BME280;64294;49.176;16.626;2023-03-18T03:43:38;99361.00;;;1.56;57.76
75681;BME280;64294;49.176;16.626;2023-03-18T03:46:04;99363.66;;;1.50;58.04
75681;BME280;64294;49.176;16.626;2023-03-18T03:48:29;99365.16;;;1.37;58.88
75681;BME280;64294;49.176;16.626;2023-03-18T03:50:55;99364.84;;;1.35;58.62
75681;BME280;64294;49.176;16.626;2023-03-18T03:53:24;99372.59;;;1.45;58.76
75681;BME280;64294;49.176;16.626;2023-03-18T03:55:50;99378.28;;;1.27;58.88
75681;BME280;64294;49.176;16.626;2023-03-18T03:58:15;99375.69;;;1.24;59.43
75681;BME280;64294;49.176;16.626;2023-03-18T04:00:41;99392.25;;;1.33;59.05
75681;BME280;64294;49.176;16.626;2023-03-18T04:03:06;99388.19;;;1.19;59.88
75681;BME280;64294;49.176;16.626;2023-03-18T04:05:32;99393.53;;;1.23;59.10
75681;BME280;64294;49.176;16.626;2023-03-18T04:07:57;99394.41;;;1.29;58.50
75681;BME280;64294;49.176;16.626;2023-03-18T04:10:26;99410.75;;;1.27;58.93
75681;BME280;64294;49.176;16.626;2023-03-18T04:12:52;99405.34;;;1.32;58.50
75681;BME280;64294;49.176;16.626;2023-03-18T04:15:19;99413.75;;;1.14;60.26
75681;BME280;64294;49.176;16.626;2023-03-18T04:17:49;99419.69;;;0.98;60.35
75681;BME280;64294;49.176;16.626;2023-03-18T04:20:15;99417.09;;;0.94;59.90
75681;BME280;64294;49.176;16.626;2023-03-18T04:22:42;99416.63;;;0.96;61.33
75681;BME280;64294;49.176;16.626;2023-03-18T04:25:08;99417.22;;;1.24;58.95
75681;BME280;64294;49.176;16.626;2023-03-18T04:27:35;99412.53;;;1.15;59.74
75681;BME280;64294;49.176;16.626;2023-03-18T04:30:03;99423.88;;;1.17;59.84
75681;BME280;64294;49.176;16.626;2023-03-18T04:32:28;99419.53;;;1.25;59.30
75681;BME280;64294;49.176;16.626;2023-03-18T04:34:54;99416.47;;;1.23;58.80
75681;BME280;64294;49.176;16.626;2023-03-18T04:37:19;99414.88;;;1.31;59.15
75681;BME280;64294;49.176;16.626;2023-03-18T04:39:48;99413.22;;;1.25;59.29
75681;BME280;64294;49.176;16.626;2023-03-18T04:42:14;99411.78;;;1.29;59.19
75681;BME280;64294;49.176;16.626;2023-03-18T04:44:40;99415.81;;;1.28;58.99
75681;BME280;64294;49.176;16.626;2023-03-18T04:47:06;99408.22;;;1.14;59.66
75681;BME280;64294;49.176;16.626;2023-03-18T04:49:32;99419.44;;;1.10;60.26
75681;BME280;64294;49.176;16.626;2023-03-18T04:51:59;99414.56;;;1.05;59.93
75681;BME280;64294;49.176;16.626;2023-03-18T04:54:24;99420.31;;;0.93;60.88
75681;BME280;64294;49.176;16.626;2023-03-18T04:56:50;99419.91;;;0.85;60.68
75681;BME280;64294;49.176;16.626;2023-03-18T04:59:15;99414.41;;;0.76;61.75
75681;BME280;64294;49.176;16.626;2023-03-18T05:01:42;99424.84;;;0.81;61.16
75681;BME280;64294;49.176;16.626;2023-03-18T05:04:07;99419.13;;;0.84;61.13
75681;BME280;64294;49.176;16.626;2023-03-18T05:06:33;99422.53;;;1.12;59.63
75681;BME280;64294;49.176;16.626;2023-03-18T05:08:59;99422.56;;;1.27;59.56
75681;BME280;64294;49.176;16.626;2023-03-18T05:11:30;99420.56;;;1.28;59.37
75681;BME280;64294;49.176;16.626;2023-03-18T05:13:55;99420.06;;;1.38;58.46
75681;BME280;64294;49.176;16.626;2023-03-18T05:16:21;99408.78;;;1.42;59.64
75681;BME280;64294;49.176;16.626;2023-03-18T05:18:46;99412.09;;;1.55;58.57
75681;BME280;64294;49.176;16.626;2023-03-18T05:21:13;99422.31;;;1.64;58.62
75681;BME280;64294;49.176;16.626;2023-03-18T05:23:38;99419.69;;;1.69;59.07
75681;BME280;64294;49.176;16.626;2023-03-18T05:26:04;99416.63;;;1.82;58.89
75681;BME280;64294;49.176;16.626;2023-03-18T05:28:30;99428.50;;;1.97;57.55
75681;BME280;64294;49.176;16.626;2023-03-18T05:30:56;99420.78;;;2.16;57.00
75681;BME280;64294;49.176;16.626;2023-03-18T05:33:22;99421.66;;;2.37;56.06
75681;BME280;64294;49.176;16.626;2023-03-18T05:35:47;99420.47;;;2.58;56.14
75681;BME280;64294;49.176;16.626;2023-03-18T05:38:13;99420.16;;;2.86;54.52
75681;BME280;64294;49.176;16.626;2023-03-18T05:40:39;99422.38;;;3.17;52.28
75681;BME280;64294;49.176;16.626;2023-03-18T05:43:04;99414.41;;;3.45;52.00
75681;BME280;64294;49.176;16.626;2023-03-18T05:45:30;99418.44;;;3.64;50.99
75681;BME280;64294;49.176;16.626;2023-03-18T05:47:56;99421.88;;;3.79;49.87
75681;BME280;64294;49.176;16.626;2023-03-18T05:52:54;99425.19;;;4.30;48.72
75681;BME280;64294;49.176;16.626;2023-03-18T05:55:19;99419.81;;;4.52;47.08
75681;BME280;64294;49.176;16.626;2023-03-18T05:57:46;99430.00;;;4.61;47.13
75681;BME280;64294;49.176;16.626;2023-03-18T06:00:13;99427.72;;;4.59;47.39
75681;BME280;64294;49.176;16.626;2023-03-18T06:02:40;99431.81;;;5.01;46.65
75681;BME280;64294;49.176;16.626;2023-03-18T06:05:05;99431.41;;;5.13;45.89
75681;BME280;64294;49.176;16.626;2023-03-18T06:07:31;99435.13;;;5.42;44.53
75681;BME280;64294;49.176;16.626;2023-03-18T06:09:56;99441.41;;;5.91;44.08
75681;BME280;64294;49.176;16.626;2023-03-18T06:12:22;99433.00;;;5.85;42.80
75681;BME280;64294;49.176;16.626;2023-03-18T06:14:51;99432.91;;;6.61;42.53
75681;BME280;64294;49.176;16.626;2023-03-18T06:17:18;99437.41;;;7.32;40.88
75681;BME280;64294;49.176;16.626;2023-03-18T06:19:44;99429.19;;;7.67;39.81
75681;BME280;64294;49.176;16.626;2023-03-18T06:22:10;99432.59;;;8.01;38.96
75681;BME280;64294;49.176;16.626;2023-03-18T06:24:35;99436.00;;;8.65;37.67
75681;BME280;64294;49.176;16.626;2023-03-18T06:27:01;99437.16;;;8.81;36.55
75681;BME280;64294;49.176;16.626;2023-03-18T06:29:26;99436.03;;;8.90;36.09
75681;BME280;64294;49.176;16.626;2023-03-18T06:31:51;99435.09;;;9.98;34.89
75681;BME280;64294;49.176;16.626;2023-03-18T06:34:17;99436.72;;;9.93;34.70
75681;BME280;64294;49.176;16.626;2023-03-18T06:36:43;99437.44;;;9.75;34.92
75681;BME280;64294;49.176;16.626;2023-03-18T06:39:08;99443.63;;;9.92;34.77
75681;BME280;64294;49.176;16.626;2023-03-18T06:41:34;99434.59;;;11.01;31.94
75681;BME280;64294;49.176;16.626;2023-03-18T06:44:00;99445.56;;;9.79;34.00
75681;BME280;64294;49.176;16.626;2023-03-18T06:46:26;99432.16;;;9.47;33.97
75681;BME280;64294;49.176;16.626;2023-03-18T06:48:51;99434.06;;;9.09;34.56
75681;BME280;64294;49.176;16.626;2023-03-18T06:51:18;99414.34;;;9.20;34.47
75681;BME280;64294;49.176;16.626;2023-03-18T06:53:44;99431.84;;;10.13;33.44
75681;BME280;64294;49.176;16.626;2023-03-18T06:56:09;99444.50;;;11.47;31.46
75681;BME280;64294;49.176;16.626;2023-03-18T06:58:37;99446.47;;;11.79;31.13
75681;BME280;64294;49.176;16.626;2023-03-18T07:01:03;99435.81;;;11.98;29.75
75681;BME280;64294;49.176;16.626;2023-03-18T07:03:29;99445.44;;;10.78;31.31
75681;BME280;64294;49.176;16.626;2023-03-18T07:05:54;99445.25;;;11.21;31.20
75681;BME280;64294;49.176;16.626;2023-03-18T07:08:20;99456.03;;;11.04;31.61
75681;BME280;64294;49.176;16.626;2023-03-18T07:10:45;99448.28;;;11.50;30.55
75681;BME280;64294;49.176;16.626;2023-03-18T07:13:11;99452.25;;;12.21;29.29
75681;BME280;64294;49.176;16.626;2023-03-18T07:15:37;99462.91;;;11.35;30.40
75681;BME280;64294;49.176;16.626;2023-03-18T07:18:03;99457.50;;;11.64;30.48
75681;BME280;64294;49.176;16.626;2023-03-18T07:20:29;99459.13;;;11.72;29.94
75681;BME280;64294;49.176;16.626;2023-03-18T07:22:55;99455.97;;;13.33;28.34
75681;BME280;64294;49.176;16.626;2023-03-18T07:25:20;99450.97;;;15.39;25.64
75681;BME280;64294;49.176;16.626;2023-03-18T07:27:46;99471.47;;;14.04;26.67
75681;BME280;64294;49.176;16.626;2023-03-18T07:30:12;99466.94;;;14.45;26.11
75681;BME280;64294;49.176;16.626;2023-03-18T07:32:38;99480.25;;;14.96;25.30
75681;BME280;64294;49.176;16.626;2023-03-18T07:35:04;99477.06;;;15.07;25.04
75681;BME280;64294;49.176;16.626;2023-03-18T07:37:31;99471.84;;;15.97;23.40
75681;BME280;64294;49.176;16.626;2023-03-18T07:39:57;99471.19;;;15.35;24.94
75681;BME280;64294;49.176;16.626;2023-03-18T07:42:22;99485.00;;;16.65;23.47
75681;BME280;64294;49.176;16.626;2023-03-18T07:44:48;99466.56;;;17.06;22.56
75681;BME280;64294;49.176;16.626;2023-03-18T07:47:13;99469.72;;;16.20;23.49
75681;BME280;64294;49.176;16.626;2023-03-18T07:49:39;99477.47;;;16.52;22.99
75681;BME280;64294;49.176;16.626;2023-03-18T07:52:06;99480.31;;;13.72;25.19
75681;BME280;64294;49.176;16.626;2023-03-18T07:54:31;99477.00;;;14.17;25.50
75681;BME280;64294;49.176;16.626;2023-03-18T07:56:57;99492.56;;;14.03;24.86
75681;BME280;64294;49.176;16.626;2023-03-18T07:59:23;99471.63;;;16.18;23.77
75681;BME280;64294;49.176;16.626;2023-03-18T08:01:48;99475.34;;;15.34;24.12
75681;BME280;64294;49.176;16.626;2023-03-18T08:04:14;99475.56;;;13.96;25.71
75681;BME280;64294;49.176;16.626;2023-03-18T08:06:40;99487.94;;;13.85;25.30
75681;BME280;64294;49.176;16.626;2023-03-18T08:09:06;99482.84;;;13.83;25.69
75681;BME280;64294;49.176;16.626;2023-03-18T08:11:33;99477.94;;;13.06;26.44
75681;BME280;64294;49.176;16.626;2023-03-18T08:13:58;99495.31;;;14.75;24.63
75681;BME280;64294;49.176;16.626;2023-03-18T08:16:24;99485.53;;;13.60;26.42
75681;BME280;64294;49.176;16.626;2023-03-18T08:18:51;99508.31;;;13.91;25.36
75681;BME280;64294;49.176;16.626;2023-03-18T08:21:17;99476.38;;;13.75;25.44
75681;BME280;64294;49.176;16.626;2023-03-18T08:23:42;99507.22;;;15.58;24.14
75681;BME280;64294;49.176;16.626;2023-03-18T08:26:09;99481.53;;;15.86;23.22
75681;BME280;64294;49.176;16.626;2023-03-18T08:28:35;99481.03;;;15.65;23.56
75681;BME280;64294;49.176;16.626;2023-03-18T08:31:00;99485.88;;;16.43;22.86
75681;BME280;64294;49.176;16.626;2023-03-18T08:33:27;99482.72;;;16.63;22.51
75681;BME280;64294;49.176;16.626;2023-03-18T08:35:54;99478.78;;;18.18;21.43
75681;BME280;64294;49.176;16.626;2023-03-18T08:38:21;99485.28;;;19.92;19.78
75681;BME280;64294;49.176;16.626;2023-03-18T08:40:47;99475.09;;;17.73;21.06
75681;BME280;64294;49.176;16.626;2023-03-18T08:43:13;99476.00;;;18.99;20.12
75681;BME280;64294;49.176;16.626;2023-03-18T08:45:38;99482.78;;;18.32;20.55
75681;BME280;64294;49.176;16.626;2023-03-18T08:48:04;99481.38;;;18.68;19.60
75681;BME280;64294;49.176;16.626;2023-03-18T08:50:30;99469.88;;;19.02;19.53
75681;BME280;64294;49.176;16.626;2023-03-18T08:52:56;99475.03;;;19.70;19.84
75681;BME280;64294;49.176;16.626;2023-03-18T08:55:27;99471.06;;;19.46;19.94
75681;BME280;64294;49.176;16.626;2023-03-18T08:57:54;99478.06;;;20.49;18.77
75681;BME280;64294;49.176;16.626;2023-03-18T09:00:19;99467.25;;;20.18;18.63
75681;BME280;64294;49.176;16.626;2023-03-18T09:02:46;99474.38;;;18.52;19.83
75681;BME280;64294;49.176;16.626;2023-03-18T09:05:12;99467.19;;;17.47;20.69
75681;BME280;64294;49.176;16.626;2023-03-18T09:07:37;99484.31;;;17.99;20.43
75681;BME280;64294;49.176;16.626;2023-03-18T09:10:03;99472.69;;;16.70;21.68
75681;BME280;64294;49.176;16.626;2023-03-18T09:12:28;99466.31;;;16.54;22.03
75681;BME280;64294;49.176;16.626;2023-03-18T09:14:54;99484.13;;;16.55;21.88
75681;BME280;64294;49.176;16.626;2023-03-18T09:17:20;99474.97;;;15.23;23.28
75681;BME280;64294;49.176;16.626;2023-03-18T09:19:47;99460.81;;;15.30;23.77
75681;BME280;64294;49.176;16.626;2023-03-18T09:22:13;99468.88;;;14.65;24.07
75681;BME280;64294;49.176;16.626;2023-03-18T09:24:38;99456.63;;;14.85;24.18
75681;BME280;64294;49.176;16.626;2023-03-18T09:27:04;99454.44;;;14.40;24.67
75681;BME280;64294;49.176;16.626;2023-03-18T09:29:30;99471.91;;;14.82;24.48
75681;BME280;64294;49.176;16.626;2023-03-18T09:31:56;99455.72;;;15.13;23.88
75681;BME280;64294;49.176;16.626;2023-03-18T09:34:22;99455.53;;;15.04;24.07
75681;BME280;64294;49.176;16.626;2023-03-18T09:36:47;99445.66;;;15.73;23.29
75681;BME280;64294;49.176;16.626;2023-03-18T09:39:17;99453.91;;;16.42;22.66
75681;BME280;64294;49.176;16.626;2023-03-18T09:44:32;99460.31;;;16.02;22.51
75681;BME280;64294;49.176;16.626;2023-03-18T09:47:03;99475.16;;;15.40;23.42
75681;BME280;64294;49.176;16.626;2023-03-18T09:49:39;99451.72;;;14.86;24.07
75681;BME280;64294;49.176;16.626;2023-03-18T09:55:04;99444.56;;;15.69;23.75
75681;BME280;64294;49.176;16.626;2023-03-18T09:57:36;99457.69;;;15.97;23.34
75681;BME280;64294;49.176;16.626;2023-03-18T10:00:18;99450.13;;;16.80;22.28
75681;BME280;64294;49.176;16.626;2023-03-18T10:02:58;99461.00;;;16.91;21.33
75681;BME280;64294;49.176;16.626;2023-03-18T10:05:33;99445.19;;;17.05;21.88
75681;BME280;64294;49.176;16.626;2023-03-18T10:08:17;99447.19;;;16.62;22.00
75681;BME280;64294;49.176;16.626;2023-03-18T10:10:45;99445.28;;;17.40;20.73
75681;BME280;64294;49.176;16.626;2023-03-18T10:13:30;99440.06;;;18.76;20.27
75681;BME280;64294;49.176;16.626;2023-03-18T10:16:00;99449.34;;;18.23;20.29
75681;BME280;64294;49.176;16.626;2023-03-18T10:18:33;99448.88;;;18.71;19.58
75681;BME280;64294;49.176;16.626;2023-03-18T10:24:13;99451.19;;;20.13;18.42
75681;BME280;64294;49.176;16.626;2023-03-18T10:26:47;99443.22;;;21.53;17.84
75681;BME280;64294;49.176;16.626;2023-03-18T10:34:21;99436.13;;;20.51;17.63
75681;BME280;64294;49.176;16.626;2023-03-18T10:39:26;99454.63;;;20.21;17.96
75681;BME280;64294;49.176;16.626;2023-03-18T10:41:53;99438.28;;;20.03;18.30
75681;BME280;64294;49.176;16.626;2023-03-18T10:44:34;99431.00;;;21.31;17.22
75681;BME280;64294;49.176;16.626;2023-03-18T10:47:28;99442.53;;;21.43;17.34
75681;BME280;64294;49.176;16.626;2023-03-18T10:55:16;99431.63;;;20.48;17.74
75681;BME280;64294;49.176;16.626;2023-03-18T10:57:42;99437.63;;;21.03;17.41
75681;BME280;64294;49.176;16.626;2023-03-18T11:00:31;99416.47;;;21.17;17.13
75681;BME280;64294;49.176;16.626;2023-03-18T11:02:57;99433.63;;;21.49;16.84
75681;BME280;64294;49.176;16.626;2023-03-18T11:05:36;99430.00;;;21.91;16.56
75681;BME280;64294;49.176;16.626;2023-03-18T11:10:38;99433.34;;;21.13;17.01
75681;BME280;64294;49.176;16.626;2023-03-18T11:13:15;99424.94;;;23.49;15.73
75681;BME280;64294;49.176;16.626;2023-03-18T11:15:47;99412.00;;;22.89;15.68
75681;BME280;64294;49.176;16.626;2023-03-18T11:18:17;99409.34;;;21.92;16.09
75681;BME280;64294;49.176;16.626;2023-03-18T11:20:46;99405.00;;;22.81;16.04
75681;BME280;64294;49.176;16.626;2023-03-18T11:23:34;99405.31;;;23.69;15.27
75681;BME280;64294;49.176;16.626;2023-03-18T11:26:26;99409.13;;;23.01;15.65
75681;BME280;64294;49.176;16.626;2023-03-18T11:29:08;99420.34;;;21.53;16.53
75681;BME280;64294;49.176;16.626;2023-03-18T11:31:48;99416.28;;;22.44;16.13
75681;BME280;64294;49.176;16.626;2023-03-18T11:34:16;99407.00;;;21.25;17.05
75681;BME280;64294;49.176;16.626;2023-03-18T11:36:53;99395.06;;;20.97;17.46
75681;BME280;64294;49.176;16.626;2023-03-18T11:39:22;99401.91;;;18.89;19.30
75681;BME280;64294;49.176;16.626;2023-03-18T11:41:49;99390.22;;;19.89;18.77
75681;BME280;64294;49.176;16.626;2023-03-18T11:44:23;99396.81;;;19.53;18.51
75681;BME280;64294;49.176;16.626;2023-03-18T11:46:54;99384.69;;;19.82;19.06
75681;BME280;64294;49.176;16.626;2023-03-18T11:49:26;99383.72;;;20.47;18.68
75681;BME280;64294;49.176;16.626;2023-03-18T11:57:19;99373.69;;;18.74;20.12
75681;BME280;64294;49.176;16.626;2023-03-18T12:05:56;99368.84;;;20.48;18.44
75681;BME280;64294;49.176;16.626;2023-03-18T12:08:40;99401.91;;;20.32;18.34
75681;BME280;64294;49.176;16.626;2023-03-18T12:29:47;99340.63;;;20.23;19.00
75681;BME280;64294;49.176;16.626;2023-03-18T12:40:44;99335.16;;;18.63;20.40
75681;BME280;64294;49.176;16.626;2023-03-18T12:46:32;99359.19;;;15.65;23.94
75681;BME280;64294;49.176;16.626;2023-03-18T12:51:55;99332.78;;;15.47;24.70
75681;BME280;64294;49.176;16.626;2023-03-18T12:54:27;99330.72;;;15.95;24.42
75681;BME280;64294;49.176;16.626;2023-03-18T12:57:03;99324.22;;;14.84;24.98
75681;BME280;64294;49.176;16.626;2023-03-18T12:59:39;99352.28;;;15.28;25.06
75681;BME280;64294;49.176;16.626;2023-03-18T13:04:33;99335.19;;;16.06;24.46
75681;BME280;64294;49.176;16.626;2023-03-18T13:07:11;99341.94;;;15.78;24.53
75681;BME280;64294;49.176;16.626;2023-03-18T13:12:41;99324.88;;;15.45;24.92
75681;BME280;64294;49.176;16.626;2023-03-18T13:17:40;99321.28;;;15.37;25.27
75681;BME280;64294;49.176;16.626;2023-03-18T13:20:19;99371.59;;;14.91;25.43
75681;BME280;64294;49.176;16.626;2023-03-18T13:22:56;99322.91;;;14.93;25.65
75681;BME280;64294;49.176;16.626;2023-03-18T13:25:26;99334.38;;;15.10;26.01
75681;BME280;64294;49.176;16.626;2023-03-18T13:30:52;99317.63;;;14.97;26.53
75681;BME280;64294;49.176;16.626;2023-03-18T13:39:34;99316.69;;;15.57;25.14
75681;BME280;64294;49.176;16.626;2023-03-18T13:47:20;99309.47;;;15.16;25.75
75681;BME280;64294;49.176;16.626;2023-03-18T13:49:47;99302.75;;;14.89;25.85
75681;BME280;64294;49.176;16.626;2023-03-18T13:52:28;99307.06;;;15.60;25.88
75681;BME280;64294;49.176;16.626;2023-03-18T13:55:05;99307.56;;;15.19;25.88
75681;BME280;64294;49.176;16.626;2023-03-18T13:57:41;99311.03;;;14.79;26.64
75681;BME280;64294;49.176;16.626;2023-03-18T14:00:22;99303.47;;;14.81;26.25
75681;BME280;64294;49.176;16.626;2023-03-18T14:05:48;99301.00;;;15.08;25.66
75681;BME280;64294;49.176;16.626;2023-03-18T14:11:42;99293.66;;;14.82;26.22
75681;BME280;64294;49.176;16.626;2023-03-18T14:14:39;99291.97;;;14.79;26.15
75681;BME280;64294;49.176;16.626;2023-03-18T14:17:14;99301.03;;;14.78;26.00
75681;BME280;64294;49.176;16.626;2023-03-18T14:19:41;99298.41;;;14.65;26.29
75681;BME280;64294;49.176;16.626;2023-03-18T14:22:33;99288.59;;;14.58;26.69
75681;BME280;64294;49.176;16.626;2023-03-18T14:25:10;99307.22;;;14.15;27.31
75681;BME280;64294;49.176;16.626;2023-03-18T14:27:53;99305.56;;;14.58;26.78
75681;BME280;64294;49.176;16.626;2023-03-18T14:30:40;99297.66;;;14.49;26.89
75681;BME280;64294;49.176;16.626;2023-03-18T14:35:58;99297.22;;;14.14;27.51
75681;BME280;64294;49.176;16.626;2023-03-18T14:38:34;99310.97;;;14.10;27.21
75681;BME280;64294;49.176;16.626;2023-03-18T14:41:10;99291.38;;;14.05;27.64
75681;BME280;64294;49.176;16.626;2023-03-18T14:43:50;99294.84;;;13.75;27.80
75681;BME280;64294;49.176;16.626;2023-03-18T14:46:22;99289.25;;;13.90;27.62
75681;BME280;64294;49.176;16.626;2023-03-18T14:48:52;99287.59;;;13.94;27.61
75681;BME280;64294;49.176;16.626;2023-03-18T14:51:22;99297.41;;;14.16;27.68